createdAt,value
2022-12-24T00:01:01.018Z,10.83
2022-12-24T00:03:28.155Z,7.73
2022-12-24T00:05:54.934Z,8.43
2022-12-24T00:08:21.984Z,8.87
2022-12-24T00:10:51.397Z,13.97
2022-12-24T00:13:18.332Z,7.30
2022-12-24T00:15:45.375Z,9.17
2022-12-24T00:18:12.116Z,7.07
2022-12-24T00:20:38.906Z,8.33
2022-12-24T00:23:05.560Z,11.37
2022-12-24T00:25:32.158Z,11.57
2022-12-24T00:27:58.945Z,18.80
2022-12-24T00:30:25.737Z,12.43
2022-12-24T00:32:52.397Z,17.37
2022-12-24T00:35:20.529Z,10.03
2022-12-24T00:37:48.913Z,10.10
2022-12-24T00:40:16.992Z,8.30
2022-12-24T00:42:47.578Z,11.43
2022-12-24T00:45:14.375Z,7.43
2022-12-24T00:47:41.259Z,7.73
2022-12-24T00:50:08.742Z,10.90
2022-12-24T00:52:35.625Z,13.23
2022-12-24T00:55:02.474Z,12.13
2022-12-24T00:57:30.472Z,11.40
2022-12-24T00:59:57.076Z,10.30
2022-12-24T01:02:24.104Z,8.53
2022-12-24T01:05:10.131Z,8.97
2022-12-24T01:07:42.195Z,15.57
2022-12-24T01:10:09.452Z,13.83
2022-12-24T01:12:36.501Z,8.80
2022-12-24T01:15:04.483Z,9.80
2022-12-24T01:17:33.547Z,9.33
2022-12-24T01:20:00.394Z,12.80
2022-12-24T01:22:27.185Z,11.00
2022-12-24T01:24:53.883Z,7.53
2022-12-24T01:27:20.618Z,8.20
2022-12-24T01:29:47.276Z,12.10
2022-12-24T01:32:14.081Z,15.27
2022-12-24T01:34:40.908Z,12.57
2022-12-24T01:37:07.531Z,14.93
2022-12-24T01:39:34.476Z,9.13
2022-12-24T01:42:19.995Z,11.10
2022-12-24T01:44:51.307Z,9.80
2022-12-24T01:47:22.377Z,11.67
2022-12-24T01:49:56.343Z,7.80
2022-12-24T01:52:29.427Z,10.20
2022-12-24T01:55:05.018Z,11.77
2022-12-24T01:57:54.907Z,13.77
2022-12-24T02:00:22.098Z,8.23
2022-12-24T02:02:52.655Z,8.17
2022-12-24T02:05:26.191Z,9.70
2022-12-24T02:07:53.006Z,10.33
2022-12-24T02:10:19.708Z,8.90
2022-12-24T02:12:47.272Z,7.53
2022-12-24T02:15:17.466Z,8.33
2022-12-24T02:17:51.025Z,8.10
2022-12-24T02:20:53.784Z,11.27
2022-12-24T02:23:57.404Z,18.93
2022-12-24T02:27:11.912Z,10.80
2022-12-24T02:30:03.937Z,15.97
2022-12-24T02:32:54.063Z,12.93
2022-12-24T02:35:53.714Z,13.80
2022-12-24T02:38:32.278Z,9.00
2022-12-24T02:41:05.833Z,7.70
2022-12-24T02:43:36.885Z,11.83
2022-12-24T02:46:08.983Z,8.93
2022-12-24T02:48:38.489Z,9.90
2022-12-24T02:51:09.243Z,10.80
2022-12-24T02:53:36.703Z,13.47
2022-12-24T02:56:25.242Z,9.53
2022-12-24T02:59:03.293Z,12.40
2022-12-24T03:02:03.489Z,8.70
2022-12-24T03:05:04.684Z,8.70
2022-12-24T03:07:37.939Z,6.70
2022-12-24T03:10:29.073Z,8.57
2022-12-24T03:13:06.644Z,10.53
2022-12-24T03:15:34.144Z,5.90
2022-12-24T03:18:03.308Z,8.83
2022-12-24T03:20:36.855Z,10.70
2022-12-24T03:23:04.641Z,7.87
2022-12-24T03:25:33.406Z,9.17
2022-12-24T03:28:03.560Z,7.43
2022-12-24T03:30:30.882Z,6.67
2022-12-24T03:32:57.569Z,6.73
2022-12-24T03:35:24.295Z,13.73
2022-12-24T03:37:51.020Z,8.80
2022-12-24T03:40:17.964Z,13.13
2022-12-24T03:42:44.758Z,12.80
2022-12-24T03:45:11.494Z,8.13
2022-12-24T03:47:38.295Z,8.80
2022-12-24T03:50:06.457Z,9.23
2022-12-24T03:52:33.066Z,10.57
2022-12-24T03:54:59.857Z,9.43
2022-12-24T03:57:26.517Z,10.43
2022-12-24T03:59:53.244Z,7.63
2022-12-24T04:02:20.055Z,7.60
2022-12-24T04:04:47.087Z,10.97
2022-12-24T04:07:13.812Z,17.03
2022-12-24T04:09:43.345Z,8.53
2022-12-24T04:12:11.144Z,12.57
2022-12-24T04:14:38.225Z,12.43
2022-12-24T04:17:06.175Z,11.87
2022-12-24T04:19:32.910Z,8.47
2022-12-24T04:21:59.533Z,8.87
2022-12-24T04:24:26.147Z,12.53
2022-12-24T04:26:52.712Z,12.30
2022-12-24T04:29:19.438Z,6.97
2022-12-24T04:31:46.163Z,9.63
2022-12-24T04:34:12.792Z,13.90
2022-12-24T04:36:39.408Z,14.77
2022-12-24T04:39:06.073Z,14.80
2022-12-24T04:41:32.821Z,7.33
2022-12-24T04:43:59.539Z,11.03
2022-12-24T04:46:30.506Z,13.53
2022-12-24T04:48:57.510Z,10.70
2022-12-24T04:51:26.127Z,10.40
2022-12-24T04:53:53.284Z,9.47
2022-12-24T04:56:22.277Z,9.00
2022-12-24T04:58:50.145Z,13.67
2022-12-24T05:01:23.372Z,10.97
2022-12-24T05:03:50.405Z,12.53
2022-12-24T05:06:19.935Z,8.50
2022-12-24T05:08:46.668Z,15.63
2022-12-24T05:11:16.734Z,15.17
2022-12-24T05:13:47.454Z,16.73
2022-12-24T05:16:16.561Z,10.30
2022-12-24T05:18:43.425Z,10.70
2022-12-24T05:21:11.649Z,16.03
2022-12-24T05:23:56.911Z,9.53
2022-12-24T05:26:32.829Z,11.60
2022-12-24T05:29:00.862Z,9.37
2022-12-24T05:31:29.990Z,10.30
2022-12-24T05:33:56.914Z,15.40
2022-12-24T05:36:23.909Z,14.00
2022-12-24T05:38:51.283Z,10.97
2022-12-24T05:41:18.900Z,10.97
2022-12-24T05:43:45.678Z,14.27
2022-12-24T05:46:15.719Z,16.67
2022-12-24T05:48:42.460Z,7.53
2022-12-24T05:51:11.272Z,17.63
2022-12-24T05:53:38.848Z,8.97
2022-12-24T05:56:07.553Z,10.23
2022-12-24T05:58:34.514Z,11.90
2022-12-24T06:01:03.400Z,15.37
2022-12-24T06:03:30.799Z,15.60
2022-12-24T06:06:02.350Z,12.87
2022-12-24T06:08:29.865Z,15.10
2022-12-24T06:10:58.151Z,16.17
2022-12-24T06:13:25.767Z,10.07
2022-12-24T06:15:56.796Z,14.10
2022-12-24T06:18:23.923Z,11.33
2022-12-24T06:20:52.070Z,11.10
2022-12-24T06:23:19.202Z,10.70
2022-12-24T06:25:46.662Z,14.43
2022-12-24T06:28:13.763Z,15.63
2022-12-24T06:30:41.221Z,17.17
2022-12-24T06:33:08.286Z,15.30
2022-12-24T06:35:34.923Z,15.33
2022-12-24T06:38:01.544Z,14.57
2022-12-24T06:40:28.688Z,8.13
2022-12-24T06:42:55.363Z,14.60
2022-12-24T06:45:21.969Z,13.30
2022-12-24T06:47:48.528Z,13.33
2022-12-24T06:50:15.185Z,14.00
2022-12-24T06:52:41.993Z,9.37
2022-12-24T06:55:09.055Z,15.23
2022-12-24T06:57:35.650Z,14.97
2022-12-24T07:00:02.217Z,17.20
2022-12-24T07:02:31.168Z,11.43
2022-12-24T07:04:57.877Z,13.03
2022-12-24T07:07:24.571Z,12.73
2022-12-24T07:09:51.405Z,15.73
2022-12-24T07:12:18.022Z,16.23
2022-12-24T07:14:44.594Z,11.47
2022-12-24T07:17:11.354Z,10.10
2022-12-24T07:19:38.086Z,16.83
2022-12-24T07:22:07.736Z,14.07
2022-12-24T07:24:36.940Z,12.03
2022-12-24T07:27:04.628Z,13.93
2022-12-24T07:29:31.436Z,22.97
2022-12-24T07:31:58.119Z,13.33
2022-12-24T07:34:24.813Z,16.93
2022-12-24T07:36:51.600Z,14.43
2022-12-24T07:39:18.269Z,17.80
2022-12-24T07:41:45.034Z,16.77
2022-12-24T07:44:14.798Z,21.60
2022-12-24T07:46:41.676Z,12.17
2022-12-24T07:49:08.322Z,14.17
2022-12-24T07:51:34.988Z,15.63
2022-12-24T07:54:01.627Z,11.77
2022-12-24T07:56:28.606Z,10.20
2022-12-24T07:58:55.263Z,13.70
2022-12-24T08:01:22.016Z,18.13
2022-12-24T08:03:51.292Z,14.00
2022-12-24T08:06:18.076Z,12.73
2022-12-24T08:08:44.720Z,12.30
2022-12-24T08:11:12.199Z,13.23
2022-12-24T08:13:38.889Z,15.10
2022-12-24T08:16:06.229Z,17.23
2022-12-24T08:18:33.686Z,18.93
2022-12-24T08:21:00.274Z,15.30
2022-12-24T08:23:26.923Z,13.03
2022-12-24T08:25:53.519Z,16.77
2022-12-24T08:28:20.963Z,21.17
2022-12-24T08:30:50.080Z,17.70
2022-12-24T08:33:17.154Z,20.80
2022-12-24T08:35:55.490Z,10.50
2022-12-24T08:38:22.499Z,15.83
2022-12-24T08:40:50.416Z,14.67
2022-12-24T08:43:18.062Z,14.43
2022-12-24T08:45:46.239Z,15.43
2022-12-24T08:48:13.080Z,15.07
2022-12-24T08:50:40.984Z,14.63
2022-12-24T08:53:09.041Z,15.93
2022-12-24T08:55:35.931Z,18.37
2022-12-24T08:58:02.553Z,24.73
2022-12-24T09:00:29.279Z,13.63
2022-12-24T09:02:56.875Z,12.53
2022-12-24T09:05:23.689Z,16.03
2022-12-24T09:07:50.307Z,18.70
2022-12-24T09:10:17.136Z,14.50
2022-12-24T09:12:43.801Z,15.13
2022-12-24T09:15:11.010Z,13.77
2022-12-24T09:17:37.868Z,26.07
2022-12-24T09:20:06.859Z,18.00
2022-12-24T09:22:38.550Z,16.50
2022-12-24T09:25:06.293Z,16.67
2022-12-24T09:27:32.978Z,15.20
2022-12-24T09:29:59.637Z,14.77
2022-12-24T09:32:26.376Z,14.20
2022-12-24T09:34:52.997Z,10.57
2022-12-24T09:37:19.650Z,27.50
2022-12-24T09:39:46.278Z,15.07
2022-12-24T09:42:45.898Z,14.47
2022-12-24T09:45:28.334Z,16.43
2022-12-24T09:48:04.352Z,11.93
2022-12-24T09:51:09.778Z,13.47
2022-12-24T09:53:50.296Z,11.50
2022-12-24T09:56:40.642Z,18.17
2022-12-24T09:59:14.572Z,17.73
2022-12-24T10:01:41.403Z,14.60
2022-12-24T10:04:19.596Z,13.00
2022-12-24T10:06:51.352Z,14.53
2022-12-24T10:09:37.064Z,19.10
2022-12-24T10:12:17.201Z,13.27
2022-12-24T10:15:05.745Z,16.30
2022-12-24T10:17:40.902Z,16.30
2022-12-24T10:20:47.404Z,19.40
2022-12-24T10:23:26.471Z,17.63
2022-12-24T10:26:11.002Z,11.63
2022-12-24T10:28:44.476Z,18.67
2022-12-24T10:31:11.750Z,21.67
2022-12-24T10:33:43.235Z,20.30
2022-12-24T10:36:18.528Z,14.37
2022-12-24T10:38:46.058Z,16.27
2022-12-24T10:41:14.243Z,17.83
2022-12-24T10:43:44.848Z,15.77
2022-12-24T10:46:23.145Z,22.50
2022-12-24T10:49:05.520Z,18.47
2022-12-24T10:51:47.653Z,16.27
2022-12-24T10:54:22.778Z,15.13
2022-12-24T10:57:02.802Z,11.53
2022-12-24T10:59:43.439Z,12.37
2022-12-24T11:02:35.494Z,17.93
2022-12-24T11:05:05.486Z,18.47
2022-12-24T11:07:32.800Z,23.70
2022-12-24T11:10:05.392Z,12.87
2022-12-24T11:12:35.738Z,22.50
2022-12-24T11:15:24.397Z,13.30
2022-12-24T11:18:06.236Z,13.50
2022-12-24T11:20:35.039Z,17.23
2022-12-24T11:23:03.253Z,19.60
2022-12-24T11:25:32.158Z,16.40
2022-12-24T11:28:24.003Z,14.07
2022-12-24T11:31:01.416Z,15.63
2022-12-24T11:33:30.277Z,9.97
2022-12-24T11:36:06.618Z,21.73
2022-12-24T11:38:34.992Z,16.87
2022-12-24T11:41:08.130Z,20.37
2022-12-24T11:43:45.569Z,21.43
2022-12-24T11:46:13.889Z,13.43
2022-12-24T11:48:40.669Z,15.90
2022-12-24T11:51:20.545Z,13.97
2022-12-24T11:54:00.926Z,25.07
2022-12-24T11:56:44.973Z,18.63
2022-12-24T11:59:25.042Z,19.10
2022-12-24T12:01:58.465Z,24.33
2022-12-24T12:04:29.653Z,18.83
2022-12-24T12:07:15.429Z,14.23
2022-12-24T12:09:50.772Z,22.50
2022-12-24T12:12:37.957Z,18.27
2022-12-24T12:15:16.562Z,16.53
2022-12-24T12:18:11.868Z,22.10
2022-12-24T12:20:46.431Z,15.47
2022-12-24T12:23:30.542Z,17.57
2022-12-24T12:26:07.910Z,13.90
2022-12-24T12:29:17.003Z,15.67
2022-12-24T12:32:01.236Z,21.73
2022-12-24T12:34:36.108Z,17.97
2022-12-24T12:37:40.143Z,10.23
2022-12-24T12:40:17.678Z,13.93
2022-12-24T12:43:09.566Z,10.77
2022-12-24T12:45:55.260Z,9.40
2022-12-24T12:48:40.636Z,15.13
2022-12-24T12:51:32.517Z,12.27
2022-12-24T12:54:17.732Z,11.50
2022-12-24T12:56:52.119Z,18.67
2022-12-24T12:59:24.672Z,14.50
2022-12-24T13:02:09.789Z,13.90
2022-12-24T13:04:58.150Z,15.87
2022-12-24T13:07:38.389Z,14.23
2022-12-24T13:10:27.089Z,19.83
2022-12-24T13:13:20.675Z,16.03
2022-12-24T13:16:23.885Z,19.53
2022-12-24T13:18:56.321Z,17.73
2022-12-24T13:21:25.515Z,17.10
2022-12-24T13:24:06.291Z,14.27
2022-12-24T13:26:33.095Z,19.23
2022-12-24T13:29:40.256Z,17.93
2022-12-24T13:32:19.288Z,21.47
2022-12-24T13:34:53.375Z,16.13
2022-12-24T13:37:32.378Z,14.67
2022-12-24T13:40:08.570Z,14.33
2022-12-24T13:43:06.158Z,17.87
2022-12-24T13:45:38.859Z,28.67
2022-12-24T13:48:08.488Z,22.27
2022-12-24T13:50:36.948Z,23.87
2022-12-24T13:53:06.169Z,21.67
2022-12-24T13:55:34.234Z,15.13
2022-12-24T13:58:03.881Z,18.00
2022-12-24T14:00:36.541Z,12.00
2022-12-24T14:03:06.414Z,15.37
2022-12-24T14:05:46.483Z,14.97
2022-12-24T14:08:25.543Z,11.50
2022-12-24T14:11:00.931Z,17.20
2022-12-24T14:13:39.926Z,12.23
2022-12-24T14:16:15.931Z,12.27
2022-12-24T14:18:46.142Z,19.47
2022-12-24T14:21:21.806Z,9.57
2022-12-24T14:24:07.130Z,11.97
2022-12-24T14:26:43.985Z,16.63
2022-12-24T14:29:25.381Z,12.43
2022-12-24T14:31:58.345Z,15.17
2022-12-24T14:34:26.056Z,8.30
2022-12-24T14:36:55.818Z,10.87
2022-12-24T14:39:28.687Z,15.03
2022-12-24T14:42:17.740Z,10.63
2022-12-24T14:44:59.561Z,13.37
2022-12-24T14:47:40.322Z,9.23
2022-12-24T14:50:28.837Z,11.20
2022-12-24T14:53:25.348Z,11.70
2022-12-24T14:55:53.498Z,14.43
2022-12-24T14:58:28.584Z,11.63
2022-12-24T15:00:59.728Z,12.43
2022-12-24T15:03:29.733Z,13.83
2022-12-24T15:06:00.569Z,11.40
2022-12-24T15:08:45.733Z,14.70
2022-12-24T15:11:22.478Z,9.10
2022-12-24T15:13:55.790Z,16.73
2022-12-24T15:16:28.855Z,12.70
2022-12-24T15:19:00.782Z,14.80
2022-12-24T15:21:41.113Z,12.47
2022-12-24T15:24:32.290Z,23.17
2022-12-24T15:27:00.263Z,17.20
2022-12-24T15:29:29.431Z,13.40
2022-12-24T15:31:58.820Z,18.30
2022-12-24T15:34:44.137Z,16.47
2022-12-24T15:37:10.702Z,17.37
2022-12-24T15:39:39.373Z,22.77
2022-12-24T15:42:13.950Z,16.93
2022-12-24T15:44:55.525Z,25.67
2022-12-24T15:47:45.699Z,20.40
2022-12-24T15:50:33.004Z,17.47
2022-12-24T15:53:19.986Z,21.37
2022-12-24T15:56:12.920Z,20.17
2022-12-24T15:58:44.517Z,16.73
2022-12-24T16:01:16.266Z,10.90
2022-12-24T16:03:59.147Z,19.53
2022-12-24T16:06:28.300Z,14.63
2022-12-24T16:08:56.469Z,16.53
2022-12-24T16:11:35.060Z,13.07
2022-12-24T16:14:12.539Z,16.03
2022-12-24T16:16:41.902Z,16.73
2022-12-24T16:19:20.222Z,14.07
2022-12-24T16:21:53.426Z,11.77
2022-12-24T16:24:29.364Z,14.77
2022-12-24T16:26:56.855Z,16.07
2022-12-24T16:29:24.447Z,16.17
2022-12-24T16:31:54.310Z,15.47
2022-12-24T16:34:24.663Z,13.30
2022-12-24T16:36:51.299Z,17.27
2022-12-24T16:39:23.900Z,14.33
2022-12-24T16:42:14.856Z,17.17
2022-12-24T16:44:42.328Z,8.67
2022-12-24T16:47:22.705Z,15.43
2022-12-24T16:49:50.564Z,14.63
2022-12-24T16:52:23.469Z,14.30
2022-12-24T16:54:50.650Z,15.47
2022-12-24T16:57:18.230Z,7.63
2022-12-24T16:59:45.547Z,11.90
2022-12-24T17:02:17.784Z,14.03
2022-12-24T17:04:45.171Z,13.50
2022-12-24T17:07:16.616Z,18.37
2022-12-24T17:09:43.710Z,12.00
2022-12-24T17:12:10.736Z,12.40
2022-12-24T17:14:39.180Z,15.67
2022-12-24T17:17:05.945Z,7.00
2022-12-24T17:19:32.688Z,14.37
2022-12-24T17:21:59.423Z,15.87
2022-12-24T17:24:26.084Z,11.30
2022-12-24T17:26:52.727Z,12.83
2022-12-24T17:29:19.402Z,14.23
2022-12-24T17:31:46.179Z,10.37
2022-12-24T17:34:12.932Z,23.87
2022-12-24T17:36:40.143Z,26.13
2022-12-24T17:39:06.878Z,41.73
2022-12-24T17:41:33.552Z,23.07
2022-12-24T17:44:00.254Z,18.07
2022-12-24T17:46:26.979Z,19.20
2022-12-24T17:48:55.066Z,21.77
2022-12-24T17:51:23.426Z,19.23
2022-12-24T17:53:50.771Z,15.73
2022-12-24T17:56:17.863Z,14.10
2022-12-24T17:58:47.034Z,23.57
2022-12-24T18:01:17.581Z,19.53
2022-12-24T18:03:45.466Z,23.03
2022-12-24T18:06:13.016Z,19.07
2022-12-24T18:08:41.840Z,14.67
2022-12-24T18:11:29.671Z,17.90
2022-12-24T18:13:57.234Z,19.57
2022-12-24T18:16:27.159Z,17.60
2022-12-24T18:18:54.603Z,17.17
2022-12-24T18:21:24.418Z,18.27
2022-12-24T18:23:52.224Z,16.67
2022-12-24T18:26:19.997Z,19.50
2022-12-24T18:28:47.468Z,17.80
2022-12-24T18:31:20.625Z,16.30
2022-12-24T18:33:51.743Z,17.87
2022-12-24T18:36:19.609Z,18.50
2022-12-24T18:38:47.699Z,19.73
2022-12-24T18:41:18.077Z,25.13
2022-12-24T18:43:44.807Z,22.27
2022-12-24T18:46:13.919Z,21.70
2022-12-24T18:48:40.831Z,20.60
2022-12-24T18:51:09.207Z,26.47
2022-12-24T18:53:38.540Z,23.33
2022-12-24T18:56:14.252Z,22.97
2022-12-24T18:58:42.468Z,24.30
2022-12-24T19:01:15.398Z,19.40
2022-12-24T19:03:42.706Z,24.07
2022-12-24T19:06:11.058Z,19.57
2022-12-24T19:08:57.016Z,14.73
2022-12-24T19:11:24.656Z,24.63
2022-12-24T19:13:52.908Z,25.60
2022-12-24T19:16:20.720Z,18.13
2022-12-24T19:18:48.944Z,15.80
2022-12-24T19:21:20.404Z,18.07
2022-12-24T19:23:51.732Z,15.90
2022-12-24T19:26:19.908Z,24.53
2022-12-24T19:28:50.182Z,12.87
2022-12-24T19:31:22.892Z,13.93
2022-12-24T19:33:51.895Z,16.63
2022-12-24T19:36:21.507Z,16.47
2022-12-24T19:38:48.579Z,14.63
2022-12-24T19:41:19.763Z,20.20
2022-12-24T19:43:51.399Z,18.53
2022-12-24T19:46:24.574Z,18.17
2022-12-24T19:48:54.041Z,16.00
2022-12-24T19:51:21.754Z,17.73
2022-12-24T19:53:49.561Z,16.47
2022-12-24T19:56:20.883Z,17.23
2022-12-24T19:58:48.712Z,16.67
2022-12-24T20:01:21.429Z,20.13
2022-12-24T20:03:49.920Z,21.27
2022-12-24T20:06:21.926Z,20.13
2022-12-24T20:08:49.276Z,18.60
2022-12-24T20:11:20.111Z,20.70
2022-12-24T20:13:47.833Z,16.93
2022-12-24T20:16:20.418Z,14.50
2022-12-24T20:18:54.942Z,38.93
2022-12-24T20:21:23.014Z,26.33
2022-12-24T20:23:49.864Z,21.80
2022-12-24T20:26:19.501Z,32.33
2022-12-24T20:28:47.009Z,22.63
2022-12-24T20:31:30.906Z,24.53
2022-12-24T20:34:00.294Z,24.63
2022-12-24T20:36:29.038Z,22.60
2022-12-24T20:38:58.157Z,70.20
2022-12-24T20:41:26.633Z,71.70
2022-12-24T20:43:53.641Z,38.10
2022-12-24T20:46:23.075Z,31.33
2022-12-24T20:48:50.477Z,37.90
2022-12-24T20:51:26.384Z,18.40
2022-12-24T20:53:55.111Z,19.33
2022-12-24T20:56:22.841Z,26.30
2022-12-24T20:58:50.288Z,23.87
2022-12-24T21:01:26.458Z,26.70
2022-12-24T21:03:55.488Z,18.07
2022-12-24T21:06:25.695Z,20.40
2022-12-24T21:08:53.628Z,18.60
2022-12-24T21:11:41.015Z,17.93
2022-12-24T21:14:10.122Z,19.90
2022-12-24T21:16:42.170Z,20.50
2022-12-24T21:19:14.607Z,17.73
2022-12-24T21:21:42.549Z,17.57
2022-12-24T21:24:10.737Z,21.53
2022-12-24T21:26:38.344Z,14.10
2022-12-24T21:29:08.541Z,23.03
2022-12-24T21:31:37.040Z,17.43
2022-12-24T21:34:04.615Z,25.73
2022-12-24T21:36:31.705Z,19.93
2022-12-24T21:39:00.143Z,17.77
2022-12-24T21:41:27.450Z,17.33
2022-12-24T21:44:00.595Z,13.87
2022-12-24T21:46:30.518Z,18.77
2022-12-24T21:49:15.863Z,15.93
2022-12-24T21:51:44.751Z,17.30
2022-12-24T21:54:23.727Z,17.70
2022-12-24T21:57:10.244Z,11.47
2022-12-24T21:59:37.402Z,12.73
2022-12-24T22:02:05.751Z,14.77
2022-12-24T22:04:33.323Z,16.67
2022-12-24T22:07:19.239Z,11.60
2022-12-24T22:10:04.595Z,11.13
2022-12-24T22:12:34.233Z,11.77
2022-12-24T22:15:05.801Z,14.37
2022-12-24T22:17:41.014Z,9.50
2022-12-24T22:20:08.511Z,12.33
2022-12-24T22:22:35.464Z,15.93
2022-12-24T22:25:02.663Z,18.57
2022-12-24T22:27:31.205Z,14.87
2022-12-24T22:29:59.312Z,17.00
2022-12-24T22:32:26.160Z,15.53
2022-12-24T22:34:55.315Z,22.20
2022-12-24T22:37:22.214Z,16.17
2022-12-24T22:39:49.081Z,15.80
2022-12-24T22:42:15.853Z,18.37
2022-12-24T22:44:42.797Z,16.73
2022-12-24T22:47:09.579Z,11.83
2022-12-24T22:49:38.285Z,29.87
2022-12-24T22:52:05.506Z,14.23
2022-12-24T22:54:32.983Z,14.53
2022-12-24T22:56:59.671Z,16.87
2022-12-24T22:59:26.500Z,16.73
2022-12-24T23:01:53.843Z,10.30
2022-12-24T23:04:20.789Z,15.67
2022-12-24T23:06:47.641Z,10.70
2022-12-24T23:09:15.884Z,8.80
2022-12-24T23:11:44.131Z,10.27
2022-12-24T23:14:35.442Z,11.47
2022-12-24T23:17:02.717Z,7.60
2022-12-24T23:19:31.882Z,12.20
2022-12-24T23:21:58.790Z,9.10
2022-12-24T23:24:27.362Z,10.50
2022-12-24T23:26:55.112Z,6.47
2022-12-24T23:29:22.026Z,7.43
2022-12-24T23:31:50.236Z,9.00
2022-12-24T23:34:23.116Z,6.27
2022-12-24T23:36:50.105Z,7.27
2022-12-24T23:39:23.313Z,9.77
2022-12-24T23:41:50.691Z,8.80
2022-12-24T23:44:19.835Z,20.43
2022-12-24T23:46:48.730Z,22.37
2022-12-24T23:49:15.628Z,10.87
2022-12-24T23:51:42.399Z,21.97
2022-12-24T23:54:09.193Z,22.80
2022-12-24T23:56:35.923Z,14.97
2022-12-24T23:59:03.743Z,23.73
